Pagrindinis puslapis
METAR-TAF:

METAR-TAF

Oro uostai :

Lençóis, Bahija, Brazilija

platuma: 12-29-00S, ilguma: 041-16-23W, Aukštis: 511 m

Dabartinis oras

Ataskaita buvo paskelbta 17 valandos ir 4 minutes, ne 18:00 UTC
Vėjas 8 kt iš Rytų
Temperatūra 34°C
Drėgmė 34%
Slėgis 1011 hPa
Matomumas 10 km arba daugiau
Išsisklaidę debesys ne aukštis 4000 ft

METAR: SBLE 081800Z 08008KT 9999 SCT040 34/16 Q1011

Laikas: 08:04 (11:04 UTC)


TAF: trūkstamas

Orai ataskaitas ir orų prognozės (METAR, TAF).

turimą stotys yra geltonos ir raudonos taškus žemėlapyje.

Perkelti pele per norėdami pamatyti stoties vardą.

Tada spustelėkite, norėdami matyti oro stebėjimo ir prognozės.

Norėdami pakeisti žemėlapį: spustelėkite ant žalios mygtukų su juodo kryžiaus žemyn,; žalią mygtuką su brūkšneliu, jei norite nutolinti; arba žalių rodyklių gretimoms žemėlapius.


METAR-TAF: